sensor_id;sensor_type;location;lat;lon;timestamp;pressure;altitude;pressure_sealevel;temperature;humidity
77410;BME280;66481;51.332;22.804;2023-02-22T00:00:22;99326.31;;;3.06;84.82
77410;BME280;66481;51.332;22.804;2023-02-22T00:04:47;99321.94;;;3.07;84.56
77410;BME280;66481;51.332;22.804;2023-02-22T00:08:48;99319.69;;;2.99;84.55
77410;BME280;66481;51.332;22.804;2023-02-22T00:12:51;99334.38;;;3.01;84.48
77410;BME280;66481;51.332;22.804;2023-02-22T00:16:52;99338.75;;;3.01;84.75
77410;BME280;66481;51.332;22.804;2023-02-22T00:20:59;99334.53;;;2.98;85.03
77410;BME280;66481;51.332;22.804;2023-02-22T00:25:00;99337.69;;;2.88;85.22
77410;BME280;66481;51.332;22.804;2023-02-22T00:29:01;99340.97;;;2.91;85.36
77410;BME280;66481;51.332;22.804;2023-02-22T00:33:03;99338.78;;;2.82;85.55
77410;BME280;66481;51.332;22.804;2023-02-22T00:37:05;99346.41;;;2.87;85.42
77410;BME280;66481;51.332;22.804;2023-02-22T00:41:07;99352.09;;;2.77;85.90
77410;BME280;66481;51.332;22.804;2023-02-22T00:45:08;99348.78;;;2.74;86.04
77410;BME280;66481;51.332;22.804;2023-02-22T00:49:09;99362.06;;;2.69;86.53
77410;BME280;66481;51.332;22.804;2023-02-22T00:53:10;99368.06;;;2.52;86.41
77410;BME280;66481;51.332;22.804;2023-02-22T00:57:12;99363.72;;;2.53;86.66
77410;BME280;66481;51.332;22.804;2023-02-22T01:01:13;99374.34;;;2.48;87.35
77410;BME280;66481;51.332;22.804;2023-02-22T01:05:14;99373.91;;;2.38;87.41
77410;BME280;66481;51.332;22.804;2023-02-22T01:09:15;99384.50;;;2.35;87.71
77410;BME280;66481;51.332;22.804;2023-02-22T01:13:16;99385.69;;;2.28;87.50
77410;BME280;66481;51.332;22.804;2023-02-22T01:17:19;99385.84;;;2.25;87.89
77410;BME280;66481;51.332;22.804;2023-02-22T01:21:20;99388.78;;;2.17;88.30
77410;BME280;66481;51.332;22.804;2023-02-22T01:25:24;99396.69;;;2.16;88.50
77410;BME280;66481;51.332;22.804;2023-02-22T01:29:25;99402.13;;;2.11;88.48
77410;BME280;66481;51.332;22.804;2023-02-22T01:33:26;99405.06;;;2.03;88.54
77410;BME280;66481;51.332;22.804;2023-02-22T01:37:27;99403.03;;;1.90;89.14
77410;BME280;66481;51.332;22.804;2023-02-22T01:41:28;99406.00;;;1.82;89.27
77410;BME280;66481;51.332;22.804;2023-02-22T01:49:48;99414.66;;;1.62;90.07
77410;BME280;66481;51.332;22.804;2023-02-22T01:53:56;99418.09;;;1.62;90.33
77410;BME280;66481;51.332;22.804;2023-02-22T01:57:58;99423.59;;;1.56;90.49
77410;BME280;66481;51.332;22.804;2023-02-22T02:02:00;99422.16;;;1.49;90.43
77410;BME280;66481;51.332;22.804;2023-02-22T02:06:05;99425.97;;;1.40;91.17
77410;BME280;66481;51.332;22.804;2023-02-22T02:10:13;99438.66;;;1.27;91.39
77410;BME280;66481;51.332;22.804;2023-02-22T02:14:15;99439.25;;;1.12;92.01
77410;BME280;66481;51.332;22.804;2023-02-22T02:18:19;99438.69;;;1.04;92.49
77410;BME280;66481;51.332;22.804;2023-02-22T02:35:20;99447.84;;;1.36;93.32
77410;BME280;66481;51.332;22.804;2023-02-22T02:44:03;99452.16;;;1.59;92.31
77410;BME280;66481;51.332;22.804;2023-02-22T02:48:08;99464.13;;;1.63;92.26
77410;BME280;66481;51.332;22.804;2023-02-22T02:52:13;99454.19;;;1.73;91.82
77410;BME280;66481;51.332;22.804;2023-02-22T02:56:17;99455.97;;;1.71;91.43
77410;BME280;66481;51.332;22.804;2023-02-22T03:00:23;99469.31;;;1.85;91.15
77410;BME280;66481;51.332;22.804;2023-02-22T03:04:43;99469.25;;;1.87;90.80
77410;BME280;66481;51.332;22.804;2023-02-22T03:08:54;99477.00;;;1.88;90.36
77410;BME280;66481;51.332;22.804;2023-02-22T03:17:45;99483.44;;;1.80;89.64
77410;BME280;66481;51.332;22.804;2023-02-22T03:26:07;99493.78;;;1.61;90.44
77410;BME280;66481;51.332;22.804;2023-02-22T03:30:26;99492.34;;;1.54;90.11
77410;BME280;66481;51.332;22.804;2023-02-22T03:34:52;99503.75;;;1.51;90.79
77410;BME280;66481;51.332;22.804;2023-02-22T03:38:57;99505.59;;;1.49;90.95
77410;BME280;66481;51.332;22.804;2023-02-22T03:43:06;99512.34;;;1.53;90.42
77410;BME280;66481;51.332;22.804;2023-02-22T03:47:15;99515.09;;;1.50;90.71
77410;BME280;66481;51.332;22.804;2023-02-22T03:51:18;99515.47;;;1.41;90.94
77410;BME280;66481;51.332;22.804;2023-02-22T03:55:20;99522.59;;;1.36;90.67
77410;BME280;66481;51.332;22.804;2023-02-22T03:59:24;99520.56;;;1.44;91.05
77410;BME280;66481;51.332;22.804;2023-02-22T04:03:27;99523.88;;;1.47;90.67
77410;BME280;66481;51.332;22.804;2023-02-22T04:07:28;99528.78;;;1.55;89.83
77410;BME280;66481;51.332;22.804;2023-02-22T04:11:47;99529.94;;;1.48;89.96
77410;BME280;66481;51.332;22.804;2023-02-22T04:15:48;99538.00;;;1.42;90.97
77410;BME280;66481;51.332;22.804;2023-02-22T04:19:49;99541.41;;;1.44;90.93
77410;BME280;66481;51.332;22.804;2023-02-22T04:23:51;99546.31;;;1.52;90.65
77410;BME280;66481;51.332;22.804;2023-02-22T04:27:52;99547.41;;;1.46;90.76
77410;BME280;66481;51.332;22.804;2023-02-22T04:31:53;99558.13;;;1.38;90.82
77410;BME280;66481;51.332;22.804;2023-02-22T04:35:54;99555.41;;;1.41;90.07
77410;BME280;66481;51.332;22.804;2023-02-22T04:39:57;99565.94;;;1.38;89.55
77410;BME280;66481;51.332;22.804;2023-02-22T04:43:58;99563.38;;;1.15;90.20
77410;BME280;66481;51.332;22.804;2023-02-22T04:47:58;99570.22;;;1.17;90.69
77410;BME280;66481;51.332;22.804;2023-02-22T04:51:59;99573.00;;;1.12;90.76
77410;BME280;66481;51.332;22.804;2023-02-22T04:56:00;99569.47;;;1.13;90.79
77410;BME280;66481;51.332;22.804;2023-02-22T05:00:03;99572.66;;;0.98;91.45
77410;BME280;66481;51.332;22.804;2023-02-22T05:04:06;99579.84;;;0.91;91.09
77410;BME280;66481;51.332;22.804;2023-02-22T05:08:07;99583.22;;;0.70;91.21
77410;BME280;66481;51.332;22.804;2023-02-22T05:12:08;99589.97;;;0.50;92.09
77410;BME280;66481;51.332;22.804;2023-02-22T05:16:09;99586.75;;;0.44;92.23
77410;BME280;66481;51.332;22.804;2023-02-22T05:20:29;99596.63;;;0.59;92.45
77410;BME280;66481;51.332;22.804;2023-02-22T05:24:31;99594.09;;;0.81;90.85
77410;BME280;66481;51.332;22.804;2023-02-22T05:28:32;99598.84;;;0.70;92.30
77410;BME280;66481;51.332;22.804;2023-02-22T05:32:34;99608.19;;;0.75;92.17
77410;BME280;66481;51.332;22.804;2023-02-22T05:36:35;99607.25;;;0.78;91.97
77410;BME280;66481;51.332;22.804;2023-02-22T05:40:36;99614.81;;;0.84;92.43
77410;BME280;66481;51.332;22.804;2023-02-22T05:44:37;99616.19;;;0.94;91.45
77410;BME280;66481;51.332;22.804;2023-02-22T05:48:38;99611.97;;;0.92;91.34
77410;BME280;66481;51.332;22.804;2023-02-22T05:52:39;99624.59;;;1.03;91.00
77410;BME280;66481;51.332;22.804;2023-02-22T05:56:40;99634.72;;;1.10;90.72
77410;BME280;66481;51.332;22.804;2023-02-22T06:00:41;99625.03;;;1.14;89.81
77410;BME280;66481;51.332;22.804;2023-02-22T06:04:45;99646.31;;;1.27;89.20
77410;BME280;66481;51.332;22.804;2023-02-22T06:08:47;99650.84;;;1.22;88.69
77410;BME280;66481;51.332;22.804;2023-02-22T06:12:48;99648.38;;;1.17;88.84
77410;BME280;66481;51.332;22.804;2023-02-22T06:16:54;99660.09;;;1.30;88.23
77410;BME280;66481;51.332;22.804;2023-02-22T06:20:57;99662.53;;;1.35;87.95
77410;BME280;66481;51.332;22.804;2023-02-22T06:24:58;99666.81;;;1.36;87.94
77410;BME280;66481;51.332;22.804;2023-02-22T06:28:59;99667.56;;;1.40;88.11
77410;BME280;66481;51.332;22.804;2023-02-22T06:33:00;99675.44;;;1.38;88.16
77410;BME280;66481;51.332;22.804;2023-02-22T06:37:01;99674.38;;;1.44;88.07
77410;BME280;66481;51.332;22.804;2023-02-22T06:41:02;99683.56;;;1.54;87.92
77410;BME280;66481;51.332;22.804;2023-02-22T06:45:03;99688.38;;;1.65;87.56
77410;BME280;66481;51.332;22.804;2023-02-22T06:49:05;99683.09;;;1.66;87.28
77410;BME280;66481;51.332;22.804;2023-02-22T06:53:07;99694.53;;;1.86;86.13
77410;BME280;66481;51.332;22.804;2023-02-22T06:57:09;99696.56;;;1.78;86.73
77410;BME280;66481;51.332;22.804;2023-02-22T07:01:10;99698.44;;;1.98;85.50
77410;BME280;66481;51.332;22.804;2023-02-22T07:05:13;99711.16;;;2.05;84.69
77410;BME280;66481;51.332;22.804;2023-02-22T07:09:16;99712.09;;;2.04;84.68
77410;BME280;66481;51.332;22.804;2023-02-22T07:13:18;99718.88;;;2.09;84.09
77410;BME280;66481;51.332;22.804;2023-02-22T07:17:19;99718.94;;;2.07;84.22
77410;BME280;66481;51.332;22.804;2023-02-22T07:21:20;99715.75;;;1.99;85.14
77410;BME280;66481;51.332;22.804;2023-02-22T07:25:22;99728.22;;;2.14;83.53
77410;BME280;66481;51.332;22.804;2023-02-22T07:29:24;99731.09;;;2.30;83.08
77410;BME280;66481;51.332;22.804;2023-02-22T07:33:25;99735.03;;;2.40;82.50
77410;BME280;66481;51.332;22.804;2023-02-22T07:37:26;99731.47;;;2.43;82.17
77410;BME280;66481;51.332;22.804;2023-02-22T07:41:27;99734.72;;;2.48;81.97
77410;BME280;66481;51.332;22.804;2023-02-22T07:45:32;99732.94;;;2.71;80.99
77410;BME280;66481;51.332;22.804;2023-02-22T07:49:34;99738.50;;;2.63;79.51
77410;BME280;66481;51.332;22.804;2023-02-22T07:53:35;99734.25;;;2.60;80.36
77410;BME280;66481;51.332;22.804;2023-02-22T07:57:36;99724.56;;;2.62;79.67
77410;BME280;66481;51.332;22.804;2023-02-22T08:01:37;99736.72;;;2.86;79.07
77410;BME280;66481;51.332;22.804;2023-02-22T08:05:40;99735.13;;;3.02;78.21
77410;BME280;66481;51.332;22.804;2023-02-22T08:09:41;99733.41;;;3.01;75.92
77410;BME280;66481;51.332;22.804;2023-02-22T08:13:42;99732.47;;;3.04;76.09
77410;BME280;66481;51.332;22.804;2023-02-22T08:17:43;99735.19;;;3.00;76.07
77410;BME280;66481;51.332;22.804;2023-02-22T08:21:44;99733.06;;;3.10;76.13
77410;BME280;66481;51.332;22.804;2023-02-22T08:25:45;99740.88;;;3.31;75.97
77410;BME280;66481;51.332;22.804;2023-02-22T08:29:46;99737.81;;;3.42;74.85
77410;BME280;66481;51.332;22.804;2023-02-22T08:33:47;99742.91;;;3.45;72.50
77410;BME280;66481;51.332;22.804;2023-02-22T08:37:52;99745.59;;;3.43;71.94
77410;BME280;66481;51.332;22.804;2023-02-22T08:41:53;99745.91;;;3.35;72.77
77410;BME280;66481;51.332;22.804;2023-02-22T08:45:54;99738.22;;;3.32;72.31
77410;BME280;66481;51.332;22.804;2023-02-22T08:49:55;99741.19;;;3.44;72.56
77410;BME280;66481;51.332;22.804;2023-02-22T08:53:57;99755.09;;;3.44;72.24
77410;BME280;66481;51.332;22.804;2023-02-22T08:57:59;99754.06;;;3.48;71.05
77410;BME280;66481;51.332;22.804;2023-02-22T09:02:03;99750.63;;;3.27;71.59
77410;BME280;66481;51.332;22.804;2023-02-22T09:06:06;99754.75;;;3.33;73.30
77410;BME280;66481;51.332;22.804;2023-02-22T09:10:10;99752.31;;;3.28;70.96
77410;BME280;66481;51.332;22.804;2023-02-22T09:14:12;99748.28;;;3.21;71.48
77410;BME280;66481;51.332;22.804;2023-02-22T09:18:14;99754.47;;;2.98;72.82
77410;BME280;66481;51.332;22.804;2023-02-22T09:22:17;99759.28;;;2.87;73.10
77410;BME280;66481;51.332;22.804;2023-02-22T09:26:21;99772.53;;;2.82;74.29
77410;BME280;66481;51.332;22.804;2023-02-22T09:34:24;99771.56;;;2.85;75.04
77410;BME280;66481;51.332;22.804;2023-02-22T09:38:29;99773.81;;;2.94;73.78
77410;BME280;66481;51.332;22.804;2023-02-22T09:42:35;99775.25;;;3.22;73.26
77410;BME280;66481;51.332;22.804;2023-02-22T09:46:39;99773.75;;;3.36;72.65
77410;BME280;66481;51.332;22.804;2023-02-22T09:56:07;99779.53;;;3.45;72.48
77410;BME280;66481;51.332;22.804;2023-02-22T10:00:23;99777.88;;;3.42;72.04
77410;BME280;66481;51.332;22.804;2023-02-22T10:04:43;99781.44;;;3.41;72.73
77410;BME280;66481;51.332;22.804;2023-02-22T10:08:48;99783.75;;;3.47;72.25
77410;BME280;66481;51.332;22.804;2023-02-22T10:13:27;99782.38;;;3.59;72.99
77410;BME280;66481;51.332;22.804;2023-02-22T10:25:55;99773.09;;;3.52;72.91
77410;BME280;66481;51.332;22.804;2023-02-22T10:34:13;99774.06;;;3.49;71.22
77410;BME280;66481;51.332;22.804;2023-02-22T10:42:25;99768.84;;;3.49;72.03
77410;BME280;66481;51.332;22.804;2023-02-22T10:46:28;99765.22;;;3.33;70.51
77410;BME280;66481;51.332;22.804;2023-02-22T10:50:30;99763.81;;;3.45;70.20
77410;BME280;66481;51.332;22.804;2023-02-22T10:54:38;99765.56;;;3.44;69.82
77410;BME280;66481;51.332;22.804;2023-02-22T10:59:03;99773.69;;;3.38;70.75
77410;BME280;66481;51.332;22.804;2023-02-22T11:12:49;99771.22;;;3.35;70.48
77410;BME280;66481;51.332;22.804;2023-02-22T11:16:56;99776.63;;;3.30;70.66
77410;BME280;66481;51.332;22.804;2023-02-22T11:21:06;99775.91;;;3.27;70.61
77410;BME280;66481;51.332;22.804;2023-02-22T11:25:16;99777.63;;;3.28;71.34
77410;BME280;66481;51.332;22.804;2023-02-22T11:29:26;99779.06;;;3.35;70.89
77410;BME280;66481;51.332;22.804;2023-02-22T11:33:28;99780.13;;;3.31;72.12
77410;BME280;66481;51.332;22.804;2023-02-22T11:37:34;99776.97;;;3.43;69.76
77410;BME280;66481;51.332;22.804;2023-02-22T11:41:36;99785.72;;;3.42;69.41
77410;BME280;66481;51.332;22.804;2023-02-22T11:45:38;99777.75;;;3.25;69.63
77410;BME280;66481;51.332;22.804;2023-02-22T11:49:42;99779.19;;;3.11;70.79
77410;BME280;66481;51.332;22.804;2023-02-22T11:54:07;99788.06;;;3.07;70.60
77410;BME280;66481;51.332;22.804;2023-02-22T12:03:05;99777.09;;;3.19;71.26
77410;BME280;66481;51.332;22.804;2023-02-22T12:07:37;99773.69;;;3.17;70.19
77410;BME280;66481;51.332;22.804;2023-02-22T12:11:55;99788.31;;;3.01;70.53
77410;BME280;66481;51.332;22.804;2023-02-22T12:24:25;99795.03;;;2.86;69.78
77410;BME280;66481;51.332;22.804;2023-02-22T12:28:34;99790.53;;;2.90;68.89
77410;BME280;66481;51.332;22.804;2023-02-22T12:32:50;99798.75;;;3.01;69.92
77410;BME280;66481;51.332;22.804;2023-02-22T12:37:15;99792.53;;;3.05;69.61
77410;BME280;66481;51.332;22.804;2023-02-22T12:41:39;99794.41;;;3.01;70.28
77410;BME280;66481;51.332;22.804;2023-02-22T12:58:23;99815.88;;;2.66;70.24
77410;BME280;66481;51.332;22.804;2023-02-22T13:02:29;99821.66;;;2.52;71.04
77410;BME280;66481;51.332;22.804;2023-02-22T13:06:55;99826.94;;;2.26;71.23
77410;BME280;66481;51.332;22.804;2023-02-22T13:11:12;99826.09;;;2.26;70.10
77410;BME280;66481;51.332;22.804;2023-02-22T13:19:43;99835.88;;;2.21;69.84
77410;BME280;66481;51.332;22.804;2023-02-22T13:23:59;99833.81;;;2.29;70.06
77410;BME280;66481;51.332;22.804;2023-02-22T13:41:09;99850.94;;;2.13;66.40
77410;BME280;66481;51.332;22.804;2023-02-22T13:53:59;99857.22;;;2.09;64.69
77410;BME280;66481;51.332;22.804;2023-02-22T13:58:07;99862.72;;;2.01;65.41
77410;BME280;66481;51.332;22.804;2023-02-22T14:02:31;99855.94;;;1.95;65.97
77410;BME280;66481;51.332;22.804;2023-02-22T14:06:36;99858.88;;;1.86;66.59
77410;BME280;66481;51.332;22.804;2023-02-22T14:10:51;99864.16;;;1.84;66.45
77410;BME280;66481;51.332;22.804;2023-02-22T14:15:22;99869.97;;;1.93;67.65
77410;BME280;66481;51.332;22.804;2023-02-22T14:19:24;99881.00;;;1.76;66.99
77410;BME280;66481;51.332;22.804;2023-02-22T14:23:36;99884.88;;;1.64;67.22
77410;BME280;66481;51.332;22.804;2023-02-22T14:27:40;99876.88;;;1.68;67.68
77410;BME280;66481;51.332;22.804;2023-02-22T14:35:44;99878.25;;;1.54;67.32
77410;BME280;66481;51.332;22.804;2023-02-22T14:39:58;99882.25;;;1.39;68.95
77410;BME280;66481;51.332;22.804;2023-02-22T14:44:02;99889.94;;;1.42;72.32
77410;BME280;66481;51.332;22.804;2023-02-22T14:48:26;99900.63;;;1.07;75.90
77410;BME280;66481;51.332;22.804;2023-02-22T14:52:36;99909.13;;;0.86;76.24
77410;BME280;66481;51.332;22.804;2023-02-22T14:56:41;99910.63;;;0.65;75.96
77410;BME280;66481;51.332;22.804;2023-02-22T15:00:51;99914.25;;;0.59;77.67
77410;BME280;66481;51.332;22.804;2023-02-22T15:04:56;99924.94;;;0.50;78.12
77410;BME280;66481;51.332;22.804;2023-02-22T15:09:12;99927.56;;;0.48;77.51
77410;BME280;66481;51.332;22.804;2023-02-22T15:13:22;99922.59;;;0.41;77.32
77410;BME280;66481;51.332;22.804;2023-02-22T15:17:24;99923.69;;;0.33;77.83
77410;BME280;66481;51.332;22.804;2023-02-22T15:21:27;99916.84;;;0.29;77.91
77410;BME280;66481;51.332;22.804;2023-02-22T15:25:31;99918.63;;;0.27;78.09
77410;BME280;66481;51.332;22.804;2023-02-22T15:29:38;99928.09;;;0.31;79.04
77410;BME280;66481;51.332;22.804;2023-02-22T15:33:40;99920.38;;;0.27;78.85
77410;BME280;66481;51.332;22.804;2023-02-22T15:37:43;99930.81;;;0.27;79.08
77410;BME280;66481;51.332;22.804;2023-02-22T15:41:45;99927.53;;;0.18;77.92
77410;BME280;66481;51.332;22.804;2023-02-22T15:45:46;99931.09;;;0.16;77.35
77410;BME280;66481;51.332;22.804;2023-02-22T15:50:21;99927.69;;;0.14;78.11
77410;BME280;66481;51.332;22.804;2023-02-22T15:54:24;99935.81;;;0.02;78.05
77410;BME280;66481;51.332;22.804;2023-02-22T15:58:27;99941.84;;;0.04;78.16
77410;BME280;66481;51.332;22.804;2023-02-22T16:02:38;99944.97;;;0.16;77.98
77410;BME280;66481;51.332;22.804;2023-02-22T16:06:41;99943.47;;;0.08;79.03
77410;BME280;66481;51.332;22.804;2023-02-22T16:10:57;99950.81;;;-0.08;80.81
77410;BME280;66481;51.332;22.804;2023-02-22T16:15:00;99948.22;;;-0.08;80.11
77410;BME280;66481;51.332;22.804;2023-02-22T16:23:29;99957.84;;;-0.12;80.17
77410;BME280;66481;51.332;22.804;2023-02-22T16:27:39;99960.25;;;-0.04;80.52
77410;BME280;66481;51.332;22.804;2023-02-22T16:31:47;99963.81;;;-0.08;79.65
77410;BME280;66481;51.332;22.804;2023-02-22T16:35:48;99972.38;;;-0.03;79.69
77410;BME280;66481;51.332;22.804;2023-02-22T16:39:53;99974.09;;;-0.04;78.21
77410;BME280;66481;51.332;22.804;2023-02-22T16:43:55;99987.38;;;-0.14;77.94
77410;BME280;66481;51.332;22.804;2023-02-22T16:47:58;99983.16;;;-0.18;78.85
77410;BME280;66481;51.332;22.804;2023-02-22T16:52:01;99982.16;;;-0.13;78.62
77410;BME280;66481;51.332;22.804;2023-02-22T16:56:08;99988.16;;;-0.11;78.47
77410;BME280;66481;51.332;22.804;2023-02-22T17:00:21;99995.16;;;-0.13;78.93
77410;BME280;66481;51.332;22.804;2023-02-22T17:04:32;99997.06;;;-0.21;78.72
77410;BME280;66481;51.332;22.804;2023-02-22T17:08:34;100002.38;;;-0.24;78.69
77410;BME280;66481;51.332;22.804;2023-02-22T17:12:36;100003.31;;;-0.28;78.88
77410;BME280;66481;51.332;22.804;2023-02-22T17:16:42;100011.03;;;-0.24;78.70
77410;BME280;66481;51.332;22.804;2023-02-22T17:20:51;100014.66;;;-0.31;78.85
77410;BME280;66481;51.332;22.804;2023-02-22T17:24:52;100007.66;;;-0.27;77.76
77410;BME280;66481;51.332;22.804;2023-02-22T17:28:54;100016.34;;;-0.30;77.82
77410;BME280;66481;51.332;22.804;2023-02-22T17:32:59;100017.41;;;-0.37;79.11
77410;BME280;66481;51.332;22.804;2023-02-22T17:37:04;100020.09;;;-0.42;78.20
77410;BME280;66481;51.332;22.804;2023-02-22T17:41:07;100028.84;;;-0.44;78.22
77410;BME280;66481;51.332;22.804;2023-02-22T17:45:12;100026.28;;;-0.46;78.15
77410;BME280;66481;51.332;22.804;2023-02-22T17:49:15;100030.44;;;-0.39;78.34
77410;BME280;66481;51.332;22.804;2023-02-22T17:53:17;100031.56;;;-0.50;78.73
77410;BME280;66481;51.332;22.804;2023-02-22T17:57:22;100031.66;;;-0.53;78.66
77410;BME280;66481;51.332;22.804;2023-02-22T18:01:28;100032.59;;;-0.58;79.13
77410;BME280;66481;51.332;22.804;2023-02-22T18:05:31;100039.25;;;-0.44;78.94
77410;BME280;66481;51.332;22.804;2023-02-22T18:09:37;100047.88;;;-0.44;78.78
77410;BME280;66481;51.332;22.804;2023-02-22T18:13:41;100042.06;;;-0.53;79.23
77410;BME280;66481;51.332;22.804;2023-02-22T18:17:45;100041.31;;;-0.59;79.88
77410;BME280;66481;51.332;22.804;2023-02-22T18:21:47;100042.09;;;-0.55;79.42
77410;BME280;66481;51.332;22.804;2023-02-22T18:25:51;100058.66;;;-0.61;79.58
77410;BME280;66481;51.332;22.804;2023-02-22T18:29:54;100050.00;;;-0.60;80.02
77410;BME280;66481;51.332;22.804;2023-02-22T18:33:57;100055.09;;;-0.55;79.08
77410;BME280;66481;51.332;22.804;2023-02-22T18:38:03;100052.66;;;-0.63;78.40
77410;BME280;66481;51.332;22.804;2023-02-22T18:42:09;100047.81;;;-0.41;79.74
77410;BME280;66481;51.332;22.804;2023-02-22T18:46:14;100052.38;;;-0.50;78.30
77410;BME280;66481;51.332;22.804;2023-02-22T18:50:19;100049.88;;;-0.53;77.73
77410;BME280;66481;51.332;22.804;2023-02-22T18:54:25;100059.50;;;-0.59;77.34
77410;BME280;66481;51.332;22.804;2023-02-22T18:58:27;100054.50;;;-0.68;77.18
77410;BME280;66481;51.332;22.804;2023-02-22T19:02:34;100064.03;;;-0.68;77.71
77410;BME280;66481;51.332;22.804;2023-02-22T19:06:38;100062.31;;;-0.69;78.42
77410;BME280;66481;51.332;22.804;2023-02-22T19:10:40;100062.28;;;-0.68;78.75
77410;BME280;66481;51.332;22.804;2023-02-22T19:14:42;100070.78;;;-0.60;77.73
77410;BME280;66481;51.332;22.804;2023-02-22T19:18:48;100066.44;;;-0.59;77.90
77410;BME280;66481;51.332;22.804;2023-02-22T19:22:50;100068.38;;;-0.67;78.87
77410;BME280;66481;51.332;22.804;2023-02-22T19:26:53;100073.66;;;-0.72;79.47
77410;BME280;66481;51.332;22.804;2023-02-22T19:30:57;100071.09;;;-0.75;79.89
77410;BME280;66481;51.332;22.804;2023-02-22T19:34:59;100064.13;;;-0.73;80.37
77410;BME280;66481;51.332;22.804;2023-02-22T19:39:07;100076.28;;;-0.73;80.94
77410;BME280;66481;51.332;22.804;2023-02-22T19:43:09;100078.09;;;-0.77;81.37
77410;BME280;66481;51.332;22.804;2023-02-22T19:47:10;100080.56;;;-0.71;81.20
77410;BME280;66481;51.332;22.804;2023-02-22T19:51:14;100090.97;;;-0.71;81.09
77410;BME280;66481;51.332;22.804;2023-02-22T19:55:16;100076.47;;;-0.83;82.28
77410;BME280;66481;51.332;22.804;2023-02-22T19:59:18;100087.78;;;-0.85;81.79
77410;BME280;66481;51.332;22.804;2023-02-22T20:03:24;100097.28;;;-0.84;82.64
77410;BME280;66481;51.332;22.804;2023-02-22T20:07:27;100093.78;;;-0.83;82.73
77410;BME280;66481;51.332;22.804;2023-02-22T20:11:30;100088.78;;;-0.91;83.57
77410;BME280;66481;51.332;22.804;2023-02-22T20:15:33;100098.34;;;-0.93;84.08
77410;BME280;66481;51.332;22.804;2023-02-22T20:19:34;100095.75;;;-0.93;84.08
77410;BME280;66481;51.332;22.804;2023-02-22T20:23:39;100102.75;;;-0.97;84.16
77410;BME280;66481;51.332;22.804;2023-02-22T20:27:45;100095.97;;;-1.04;84.67
77410;BME280;66481;51.332;22.804;2023-02-22T20:31:48;100101.09;;;-1.02;84.78
77410;BME280;66481;51.332;22.804;2023-02-22T20:35:56;100105.34;;;-0.97;85.37
77410;BME280;66481;51.332;22.804;2023-02-22T20:40:03;100108.78;;;-0.96;83.92
77410;BME280;66481;51.332;22.804;2023-02-22T20:44:08;100106.28;;;-1.02;84.55
77410;BME280;66481;51.332;22.804;2023-02-22T20:48:12;100109.75;;;-1.00;85.68
77410;BME280;66481;51.332;22.804;2023-02-22T20:52:33;100108.81;;;-0.98;85.92
77410;BME280;66481;51.332;22.804;2023-02-22T20:56:39;100104.56;;;-1.00;84.77
77410;BME280;66481;51.332;22.804;2023-02-22T21:00:42;100106.22;;;-0.98;84.60
77410;BME280;66481;51.332;22.804;2023-02-22T21:04:44;100101.19;;;-1.05;85.34
77410;BME280;66481;51.332;22.804;2023-02-22T21:08:54;100104.63;;;-1.05;86.26
77410;BME280;66481;51.332;22.804;2023-02-22T21:12:57;100095.91;;;-1.02;85.70
77410;BME280;66481;51.332;22.804;2023-02-22T21:16:59;100103.66;;;-0.99;85.56
77410;BME280;66481;51.332;22.804;2023-02-22T21:21:05;100121.03;;;-1.03;86.24
77410;BME280;66481;51.332;22.804;2023-02-22T21:25:10;100117.66;;;-1.08;86.67
77410;BME280;66481;51.332;22.804;2023-02-22T21:29:14;100125.38;;;-1.03;86.08
77410;BME280;66481;51.332;22.804;2023-02-22T21:33:17;100122.00;;;-1.08;86.84
77410;BME280;66481;51.332;22.804;2023-02-22T21:37:20;100129.56;;;-0.96;87.20
77410;BME280;66481;51.332;22.804;2023-02-22T21:41:27;100126.19;;;-1.00;87.23
77410;BME280;66481;51.332;22.804;2023-02-22T21:45:30;100122.53;;;-0.91;87.85
77410;BME280;66481;51.332;22.804;2023-02-22T21:49:38;100119.81;;;-0.85;87.45
77410;BME280;66481;51.332;22.804;2023-02-22T21:53:52;100114.69;;;-0.88;86.44
77410;BME280;66481;51.332;22.804;2023-02-22T21:58:05;100119.34;;;-1.04;84.52
77410;BME280;66481;51.332;22.804;2023-02-22T22:02:16;100122.84;;;-1.08;86.18
77410;BME280;66481;51.332;22.804;2023-02-22T22:06:30;100119.66;;;-1.21;86.12
77410;BME280;66481;51.332;22.804;2023-02-22T22:10:33;100113.47;;;-1.14;85.87
77410;BME280;66481;51.332;22.804;2023-02-22T22:14:34;100118.84;;;-1.23;84.46
77410;BME280;66481;51.332;22.804;2023-02-22T22:18:37;100108.44;;;-1.23;84.96
77410;BME280;66481;51.332;22.804;2023-02-22T22:22:40;100111.03;;;-1.23;84.16
77410;BME280;66481;51.332;22.804;2023-02-22T22:26:43;100111.13;;;-1.27;85.15
77410;BME280;66481;51.332;22.804;2023-02-22T22:30:43;100111.91;;;-1.24;84.08
77410;BME280;66481;51.332;22.804;2023-02-22T22:34:44;100118.88;;;-1.26;84.67
77410;BME280;66481;51.332;22.804;2023-02-22T22:38:46;100123.34;;;-1.33;82.53
77410;BME280;66481;51.332;22.804;2023-02-22T22:42:47;100125.25;;;-1.44;80.68
77410;BME280;66481;51.332;22.804;2023-02-22T22:46:49;100120.97;;;-1.45;80.33
77410;BME280;66481;51.332;22.804;2023-02-22T22:51:03;100128.69;;;-1.42;79.70
77410;BME280;66481;51.332;22.804;2023-02-22T22:55:06;100140.84;;;-1.45;79.88
77410;BME280;66481;51.332;22.804;2023-02-22T22:59:11;100133.16;;;-1.50;79.49
77410;BME280;66481;51.332;22.804;2023-02-22T23:03:15;100123.59;;;-1.46;79.34
77410;BME280;66481;51.332;22.804;2023-02-22T23:07:16;100140.13;;;-1.52;78.80
77410;BME280;66481;51.332;22.804;2023-02-22T23:11:19;100132.25;;;-1.47;78.97
77410;BME280;66481;51.332;22.804;2023-02-22T23:15:19;100140.03;;;-1.49;77.95
77410;BME280;66481;51.332;22.804;2023-02-22T23:19:21;100136.63;;;-1.51;77.15
77410;BME280;66481;51.332;22.804;2023-02-22T23:23:23;100142.69;;;-1.50;77.16
77410;BME280;66481;51.332;22.804;2023-02-22T23:27:27;100143.75;;;-1.61;76.03
77410;BME280;66481;51.332;22.804;2023-02-22T23:31:28;100142.69;;;-1.50;77.16